Airfield :
LOGIN :

Register | Disclaimer

   EN    FR    IT 

 










Legend :    VFR   Marginal VFR   IFR   Intensive IFR   Very Intensive IFR
Visi :
Ceiling :
>= 8 km
>= 3000ft
5 to 8 km
1000 to 3000 ft
1500m to 5 km
500 to 1000 ft
800 to 1500m
200 to 500 ft
< 800m
< 200 ft
Symbols :   Thunderstorms  Fog  Heavy snow  Heavy precipitations  Wind > 20 kt
SIGMETs :     Misc.  Thunderstorms  Icing  Turbulence  Mountain Waves  Volcanic Ashes







- Airport Elevation : 289 ft
- Download approach charts


LFYR - Romorantin Pruniers

CURRENT METAR :
  • 150030Z AUTO 23008KT CAVOK 05/02 Q0999

EXPIRED METARs :
  • 150000Z AUTO 23008KT CAVOK 05/02 Q0999
  • 142330Z AUTO 24009KT CAVOK 05/03 Q1000
  • 142300Z AUTO 25010KT 220V280 9999 FEW026 05/03 Q0999
  • 142230Z AUTO 23009KT 190V260 9999 FEW025 OVC190 05/03 Q0999
  • 142200Z AUTO 24009KT 210V270 9999 SCT024 BKN030 BKN180 06/03 Q0999

Expired Forecast.
No reported NOTAMs for that airfield.
1 SIGMET reported for the Paris FIR (LFFF) :
 
Severe turbulence
LFFF SIGMET 14 VALID 142300/150300 LFPW
LFFF PARIS FIR/UIR SEV TURB FCST SE OF LINE N4700 E00215 - N4730 E00415 FL170/280 STNR WKN=



MET'MAP, your aeronautical weather chart ! - Copyright ORBIFLY December 2007 - Disclaimer

ORBIFLY MET'MAP TEAM :

Programming & Development : Alexandra Zaïnal
Concept & Development : Baudouin d'Aumeries
Co-Development & Prog : Marc-Olivier Méhu
Technical & hardware support : Manuel Goepfert

Contact : metmap@orbifly.com




SOURCES & CREDITS :

   NOAA